createdAt,value
2023-03-22T00:00:44.535Z,45.46
2023-03-22T00:03:12.238Z,44.40
2023-03-22T00:05:39.620Z,45.36
2023-03-22T00:08:06.454Z,46.31
2023-03-22T00:10:33.104Z,47.37
2023-03-22T00:12:59.830Z,46.63
2023-03-22T00:15:26.565Z,44.80
2023-03-22T00:17:53.951Z,44.62
2023-03-22T00:20:20.917Z,43.55
2023-03-22T00:22:47.645Z,42.95
2023-03-22T00:25:14.147Z,42.34
2023-03-22T00:27:40.824Z,42.31
2023-03-22T00:30:07.727Z,43.29
2023-03-22T00:32:36.513Z,43.75
2023-03-22T00:35:03.266Z,44.60
2023-03-22T00:37:30.698Z,43.35
2023-03-22T00:39:58.645Z,43.26
2023-03-22T00:42:25.406Z,44.28
2023-03-22T00:44:52.014Z,44.99
2023-03-22T00:47:19.795Z,44.34
2023-03-22T00:49:46.350Z,44.03
2023-03-22T00:52:15.275Z,45.29
2023-03-22T00:54:41.831Z,44.20
2023-03-22T00:57:08.664Z,45.30
2023-03-22T00:59:35.262Z,45.71
2023-03-22T01:02:04.323Z,45.75
2023-03-22T01:04:31.330Z,45.45
2023-03-22T01:07:02.057Z,46.08
2023-03-22T01:09:31.058Z,46.46
2023-03-22T01:11:58.576Z,46.58
2023-03-22T01:14:27.409Z,46.77
2023-03-22T01:16:56.432Z,50.30
2023-03-22T01:19:23.236Z,51.13
2023-03-22T01:21:50.064Z,50.41
2023-03-22T01:24:19.300Z,50.24
2023-03-22T01:29:18.909Z,47.62
2023-03-22T01:31:46.404Z,47.39
2023-03-22T01:34:13.332Z,46.97
2023-03-22T01:36:40.069Z,45.77
2023-03-22T01:39:06.645Z,45.09
2023-03-22T01:41:33.327Z,45.19
2023-03-22T01:44:03.275Z,46.00
2023-03-22T01:46:29.781Z,45.86
2023-03-22T01:48:56.413Z,45.89
2023-03-22T01:51:23.082Z,45.80
2023-03-22T01:53:49.684Z,46.76
2023-03-22T01:56:16.152Z,46.76
2023-03-22T01:58:45.010Z,46.57
2023-03-22T02:04:01.390Z,47.49
2023-03-22T02:06:27.987Z,47.59
2023-03-22T02:12:13.292Z,47.07
2023-03-22T02:14:39.884Z,47.38
2023-03-22T02:26:16.055Z,48.65
2023-03-22T02:28:42.679Z,50.27
2023-03-22T02:31:11.750Z,50.33
2023-03-22T02:33:41.194Z,49.91
2023-03-22T02:36:11.334Z,48.25
2023-03-22T02:38:37.992Z,46.46
2023-03-22T02:41:06.945Z,45.87
2023-03-22T02:43:33.748Z,45.71
2023-03-22T02:46:01.149Z,45.78
2023-03-22T02:48:29.523Z,45.53
2023-03-22T02:50:58.514Z,46.36
2023-03-22T02:53:25.216Z,46.45
2023-03-22T02:55:51.914Z,46.35
2023-03-22T02:58:20.345Z,46.18
2023-03-22T03:00:46.893Z,46.31
2023-03-22T03:03:13.444Z,46.72
2023-03-22T03:05:40.007Z,47.56
2023-03-22T03:08:06.660Z,47.47
2023-03-22T03:10:33.245Z,47.29
2023-03-22T03:13:00.145Z,50.21
2023-03-22T03:15:29.030Z,48.76
2023-03-22T03:17:55.632Z,49.44
2023-03-22T03:20:22.424Z,48.62
2023-03-22T03:22:49.753Z,51.34
2023-03-22T03:25:17.266Z,52.82
2023-03-22T03:27:46.271Z,51.73
2023-03-22T03:30:14.128Z,50.04
2023-03-22T03:32:40.710Z,49.32
2023-03-22T03:35:07.393Z,49.00
2023-03-22T03:37:34.160Z,49.53
2023-03-22T03:40:00.986Z,51.36
2023-03-22T03:42:29.736Z,49.79
2023-03-22T03:44:56.552Z,48.99
2023-03-22T03:47:26.382Z,49.93
2023-03-22T03:49:52.931Z,48.46
2023-03-22T03:52:19.875Z,49.27
2023-03-22T03:54:46.816Z,49.37
2023-03-22T03:57:13.632Z,50.16
2023-03-22T03:59:40.227Z,48.93
2023-03-22T04:02:15.290Z,48.60
2023-03-22T04:04:42.290Z,48.69
2023-03-22T04:07:09.690Z,49.56
2023-03-22T04:09:36.317Z,49.55
2023-03-22T04:12:03.196Z,49.36
2023-03-22T04:14:29.924Z,48.89
2023-03-22T04:16:56.696Z,51.83
2023-03-22T04:19:23.597Z,51.63
2023-03-22T04:21:50.189Z,52.90
2023-03-22T04:24:16.970Z,51.46
2023-03-22T04:26:44.004Z,51.40
2023-03-22T04:29:11.573Z,50.65
2023-03-22T04:31:38.316Z,50.35
2023-03-22T04:34:05.169Z,49.50
2023-03-22T04:36:32.047Z,49.33
2023-03-22T04:38:58.684Z,50.25
2023-03-22T04:41:28.584Z,49.40
2023-03-22T04:43:59.028Z,49.81
2023-03-22T04:46:25.796Z,50.16
2023-03-22T04:48:52.658Z,50.33
2023-03-22T04:51:19.254Z,49.68
2023-03-22T04:53:46.077Z,48.98
2023-03-22T04:56:15.017Z,50.24
2023-03-22T04:58:43.794Z,50.27
2023-03-22T05:01:10.501Z,48.85
2023-03-22T05:03:37.099Z,48.17
2023-03-22T05:06:03.933Z,49.41
2023-03-22T05:08:30.519Z,49.35
2023-03-22T05:10:57.145Z,48.30
2023-03-22T05:13:23.666Z,48.68
2023-03-22T05:15:52.068Z,49.95
2023-03-22T05:18:18.886Z,50.03
2023-03-22T05:20:45.741Z,51.80
2023-03-22T05:23:14.469Z,51.40
2023-03-22T05:25:43.608Z,51.79
2023-03-22T05:28:12.184Z,51.90
2023-03-22T05:30:39.230Z,52.89
2023-03-22T05:33:06.059Z,53.61
2023-03-22T05:35:35.064Z,52.44
2023-03-22T05:38:01.969Z,52.23
2023-03-22T05:40:28.845Z,54.59
2023-03-22T05:42:57.906Z,54.43
2023-03-22T05:45:24.533Z,54.56
2023-03-22T05:47:53.982Z,52.51
2023-03-22T05:50:20.653Z,52.02
2023-03-22T05:52:47.943Z,52.58
2023-03-22T05:55:14.828Z,53.26
2023-03-22T05:57:44.139Z,51.67
2023-03-22T06:00:13.444Z,50.15
2023-03-22T06:02:40.398Z,50.12
2023-03-22T06:05:07.514Z,50.22
2023-03-22T06:07:34.025Z,51.36
2023-03-22T06:10:00.998Z,50.56
2023-03-22T06:12:30.075Z,49.85
2023-03-22T06:14:59.048Z,49.08
2023-03-22T06:17:25.898Z,48.46
2023-03-22T06:19:53.375Z,48.35
2023-03-22T06:22:19.968Z,50.38
2023-03-22T06:24:48.975Z,50.03
2023-03-22T06:27:16.939Z,49.44
2023-03-22T06:29:44.382Z,49.20
2023-03-22T06:32:15.642Z,48.36
2023-03-22T06:34:42.370Z,48.58
2023-03-22T06:37:10.083Z,48.12
2023-03-22T06:39:36.930Z,48.17
2023-03-22T06:42:05.958Z,47.00
2023-03-22T06:44:32.570Z,47.44
2023-03-22T06:46:59.692Z,46.75
2023-03-22T06:49:27.217Z,46.96
2023-03-22T06:51:54.064Z,47.09
2023-03-22T06:54:21.528Z,47.30
2023-03-22T06:56:48.355Z,47.33
2023-03-22T06:59:17.457Z,47.18
2023-03-22T07:01:44.528Z,47.86
2023-03-22T07:04:11.758Z,48.23
2023-03-22T07:06:39.687Z,47.72
2023-03-22T07:09:06.150Z,46.89
2023-03-22T07:11:36.476Z,46.48
2023-03-22T07:14:03.131Z,45.57
2023-03-22T07:16:29.970Z,45.01
2023-03-22T07:18:56.859Z,45.27
2023-03-22T07:21:23.928Z,45.05
2023-03-22T07:23:50.582Z,44.38
2023-03-22T07:26:17.537Z,44.38
2023-03-22T07:28:44.455Z,43.75
2023-03-22T07:31:18.234Z,44.31
2023-03-22T07:33:47.288Z,44.10
2023-03-22T07:36:13.923Z,45.98
2023-03-22T07:38:40.750Z,45.64
2023-03-22T07:41:07.334Z,44.48
2023-03-22T07:43:47.312Z,44.28
2023-03-22T07:46:20.187Z,42.73
2023-03-22T07:48:48.113Z,42.16
2023-03-22T07:51:15.020Z,42.89
2023-03-22T07:53:41.583Z,44.47
2023-03-22T07:56:10.645Z,44.74
2023-03-22T07:58:37.277Z,44.65
2023-03-22T08:01:05.891Z,45.07
2023-03-22T08:03:32.699Z,44.59
2023-03-22T08:05:59.443Z,44.79
2023-03-22T08:08:26.168Z,43.62
2023-03-22T08:10:55.246Z,44.01
2023-03-22T08:13:22.150Z,43.47
2023-03-22T08:15:48.997Z,42.87
2023-03-22T08:18:15.906Z,43.12
2023-03-22T08:20:42.772Z,42.79
2023-03-22T08:23:09.702Z,42.61
2023-03-22T08:25:38.358Z,42.42
2023-03-22T08:28:06.900Z,42.63
2023-03-22T08:30:33.774Z,41.79
2023-03-22T08:33:00.686Z,42.33
2023-03-22T08:35:28.178Z,41.89
2023-03-22T08:37:55.605Z,42.07
2023-03-22T08:40:22.615Z,42.36
2023-03-22T08:42:49.562Z,43.26
2023-03-22T08:45:16.342Z,42.59
2023-03-22T08:47:44.027Z,42.67
2023-03-22T08:50:10.733Z,41.64
2023-03-22T08:52:37.417Z,41.73
2023-03-22T08:55:04.285Z,43.01
2023-03-22T08:57:33.285Z,42.04
2023-03-22T09:00:00.853Z,41.87
2023-03-22T09:02:27.599Z,41.83
2023-03-22T09:04:55.069Z,41.80
2023-03-22T09:07:21.781Z,41.98
2023-03-22T09:09:48.617Z,41.18
2023-03-22T09:12:15.084Z,41.05
2023-03-22T09:14:41.979Z,41.93
2023-03-22T09:17:08.549Z,41.51
2023-03-22T09:19:35.916Z,40.99
2023-03-22T09:22:05.580Z,40.00
2023-03-22T09:24:32.390Z,39.69
2023-03-22T09:26:59.701Z,39.37
2023-03-22T09:29:27.202Z,41.13
2023-03-22T09:32:00.952Z,40.46
2023-03-22T09:34:27.876Z,40.34
2023-03-22T09:36:57.336Z,39.25
2023-03-22T09:39:24.166Z,39.73
2023-03-22T09:41:50.808Z,39.15
2023-03-22T09:44:17.760Z,38.41
2023-03-22T09:46:45.187Z,38.17
2023-03-22T09:49:14.489Z,37.98
2023-03-22T09:51:41.434Z,38.36
2023-03-22T09:54:10.451Z,38.74
2023-03-22T09:56:37.261Z,38.12
2023-03-22T09:59:04.028Z,37.78
2023-03-22T10:01:30.869Z,38.14
2023-03-22T10:03:58.018Z,40.64
2023-03-22T10:06:25.037Z,41.13
2023-03-22T10:08:53.343Z,40.86
2023-03-22T10:11:22.330Z,41.00
2023-03-22T10:13:50.963Z,38.90
2023-03-22T10:16:17.901Z,40.08
2023-03-22T10:18:44.811Z,39.24
2023-03-22T10:21:12.387Z,38.09
2023-03-22T10:23:39.030Z,37.78
2023-03-22T10:26:08.286Z,38.64
2023-03-22T10:28:34.902Z,38.51
2023-03-22T10:31:03.697Z,38.38
2023-03-22T10:33:31.808Z,38.30
2023-03-22T10:35:59.415Z,38.45
2023-03-22T10:38:26.268Z,36.46
2023-03-22T10:40:55.342Z,36.14
2023-03-22T10:43:24.191Z,35.98
2023-03-22T10:45:51.669Z,35.46
2023-03-22T10:48:19.472Z,35.30
2023-03-22T10:50:48.196Z,34.53
2023-03-22T10:53:17.764Z,33.94
2023-03-22T10:55:44.344Z,34.96
2023-03-22T10:58:11.192Z,34.05
2023-03-22T11:00:41.202Z,32.78
2023-03-22T11:03:10.253Z,33.78
2023-03-22T11:05:37.916Z,33.02
2023-03-22T11:08:06.831Z,31.78
2023-03-22T11:10:33.965Z,32.89
2023-03-22T11:13:00.863Z,32.31
2023-03-22T11:15:27.719Z,32.46
2023-03-22T11:17:54.762Z,31.56
2023-03-22T11:20:24.546Z,31.08
2023-03-22T11:22:52.019Z,31.78
2023-03-22T11:25:18.856Z,34.99
2023-03-22T11:27:45.532Z,33.89
2023-03-22T11:30:12.431Z,34.04
2023-03-22T11:32:44.589Z,32.69
2023-03-22T11:35:11.512Z,32.38
2023-03-22T11:37:38.108Z,32.01
2023-03-22T11:40:05.173Z,32.25
2023-03-22T11:42:33.365Z,33.60
2023-03-22T11:45:02.505Z,34.16
2023-03-22T11:47:29.326Z,34.61
2023-03-22T11:49:56.595Z,33.75
2023-03-22T11:52:23.244Z,33.35
2023-03-22T11:54:52.932Z,33.20
2023-03-22T11:57:19.846Z,32.01
2023-03-22T11:59:46.387Z,32.62
2023-03-22T12:02:13.149Z,34.63
2023-03-22T12:04:41.016Z,35.29
2023-03-22T12:07:07.676Z,33.66
2023-03-22T12:09:35.377Z,33.01
2023-03-22T12:12:01.957Z,34.52
2023-03-22T12:14:28.926Z,34.61
2023-03-22T12:16:56.429Z,35.88
2023-03-22T12:19:25.408Z,35.24
2023-03-22T12:21:54.343Z,34.14
2023-03-22T12:24:21.185Z,33.33
2023-03-22T12:26:47.798Z,33.91
2023-03-22T12:29:14.668Z,32.83
2023-03-22T12:31:41.722Z,33.73
2023-03-22T12:34:08.631Z,33.59
2023-03-22T12:36:37.635Z,33.26
2023-03-22T12:39:04.448Z,32.66
2023-03-22T12:41:32.588Z,32.07
2023-03-22T12:47:05.735Z,31.15
2023-03-22T12:52:19.973Z,30.76
2023-03-22T12:54:46.983Z,30.76
2023-03-22T12:57:13.616Z,31.35
2023-03-22T12:59:40.729Z,30.96
2023-03-22T13:02:14.791Z,30.70
2023-03-22T13:04:41.618Z,31.43
2023-03-22T13:07:08.683Z,30.98
2023-03-22T13:09:35.619Z,30.79
2023-03-22T13:12:03.240Z,31.07
2023-03-22T13:14:30.597Z,31.59
2023-03-22T13:16:57.593Z,30.18
2023-03-22T13:19:24.446Z,31.34
2023-03-22T13:21:51.034Z,29.72
2023-03-22T13:24:17.905Z,30.81
2023-03-22T13:26:46.955Z,30.21
2023-03-22T13:29:13.986Z,30.59
2023-03-22T13:31:40.605Z,29.84
2023-03-22T13:34:07.599Z,30.89
2023-03-22T13:36:36.565Z,31.33
2023-03-22T13:39:04.229Z,31.56
2023-03-22T13:44:22.932Z,31.96
2023-03-22T13:46:49.512Z,32.36
2023-03-22T13:49:16.157Z,32.33
2023-03-22T13:51:50.313Z,31.49
2023-03-22T13:54:17.580Z,30.65
2023-03-22T13:56:45.251Z,30.58
2023-03-22T13:59:12.705Z,30.67
2023-03-22T14:01:40.764Z,29.82
2023-03-22T14:04:09.444Z,29.81
2023-03-22T14:06:38.625Z,29.57
2023-03-22T14:09:05.632Z,29.78
2023-03-22T14:11:32.324Z,30.93
2023-03-22T14:13:59.253Z,30.96
2023-03-22T14:16:27.198Z,30.52
2023-03-22T14:18:53.814Z,30.63
2023-03-22T14:21:21.514Z,30.31
